Logo AVAMET
Benvolgut visitant, si us plau, ingressa Recuperar contrasenya

Albatera

Dades diàries. Acumulats / Últims 30 dies disponibles

Data Temperatura (°C) Humitat rel. (%) Pressió rel. (hPa) Vent (km/h) Precipitació
Mínima Mitjana Màxima Amplitud
tèrmica
Mínima Mitjana Màxima Mínima Mitjana Màxima Predom. Mitjana Ràfega
màxima
Total
(mm)
Índex-n
Mínima Mitjana Màxima Mínima Mitjana Màxima n
0 a 1
P0 max
mm 5'
Dades mensuals acumulades fins l'últim dia disponible
06/2019 12,9 16,1 19,4 21,9 22,3 27,7 32,9 20,0 8 46 86 1.007 1.015 1.023   6,4 46,7 0,8
Dades anuals acumulades fins l'últim dia disponible
2019 2,0 10,4 19,4 16,1 13,7 22,3 32,9 30,9 8 52 87 995 1.017 1.035   6,4 78,9 150,2
Últims 30 dies disponibles
16-06-2019 15,5     21,8     -15,5 40 53 66 1.017 1.019 1.020 SSO 5,5 33,8 0,0
15-06-2019 19,1     25,4     -19,1 14 28 62 1.014 1.016 1.019 SSE 9,5 38,6 0,4
14-06-2019 19,1     24,7     -19,1 25 46 70 1.008 1.011 1.014 SSO 7,0 41,8 0,4
13-06-2019 15,5     18,9     24,5 9,0 38 55 73 1.009 1.011 1.014 S 4,7 25,7 0,0
12-06-2019 17,5     20,4     25,1 7,6 30 51 69 1.013 1.014 1.015 W 6,6 29,0 0,0
11-06-2019 18,9     24,1     31,6 12,7 48 60 72 1.009 1.010 1.014 SW 6,8 38,6 0,0
10-06-2019 17,6     25,2     32,9 15,3 21 43 70 1.012 1.013 1.014 W 6,4 38,6 0,0
09-06-2019 19,4     24,3     30,2 10,8 29 45 59 1.013 1.015 1.019 NE 6,4 33,8 0,0
08-06-2019 15,7     22,6     30,4 14,7 33 47 60 1.017 1.019 1.021 SSO 8,6 46,7 0,0
07-06-2019 15,8     19,6     25,6 9,8 21 47 74 1.011 1.014 1.019 SW 4,7 24,1 0,0
06-06-2019 13,4     17,9     22,3 8,9 24 46 71 1.010 1.012 1.014 WSW 4,5 27,4 0,0
05-06-2019 16,3     24,1     30,7 14,4 8 35 74 1.007 1.009 1.013 E 9,6 45,1 0,0
04-06-2019 14,4     22,9     30,7 16,3 31 59 86 1.008 1.011 1.015 SO 5,6 27,4 0,0
03-06-2019 13,6     22,5     29,4 15,8 23 46 72 1.015 1.017 1.019 SSO 4,6 27,4 0,0
02-06-2019 12,9     18,1     24,2 11,3 15 35 62 1.018 1.019 1.021 SW 6,9 33,8 0,0
01-06-2019 12,9     17,5     23,0 10,1 18 39 65 1.020 1.022 1.023 SW 4,3 29,0 0,0
31-05-2019 12,8     20,2     25,6 12,8 35 51 71 1.023 1.024 1.025 SSO 5,6 30,6 0,0
30-05-2019 14,4     20,0     25,5 11,1 30 52 69 1.024 1.025 1.026 S 5,3 30,6 0,0
29-05-2019 15,6     19,5     25,8 10,2 30 50 70 1.018 1.021 1.024 S 6,6 32,2 0,0
28-05-2019 15,6     21,5     29,0 13,4 42 61 73 1.011 1.014 1.018 SSO 7,1 32,2 0,0
27-05-2019 14,1     22,0     29,0 14,9 32 55 73 1.010 1.012 1.015 S 7,6 46,7 0,0
26-05-2019 13,7     20,8     27,5 13,8 30 53 74 1.014 1.016 1.018 S 8,8 46,7 0,0
25-05-2019 13,7     18,8     24,4 10,7 35 56 76 1.014 1.016 1.019 S 6,7 43,5 1,6
24-05-2019 14,0     19,0     29,5 15,5 26 54 72 1.012 1.013 1.016 S 6,6 43,5 1,4
23-05-2019 13,7     21,8     29,5 15,8 19 48 69 1.015 1.017 1.019 SO 4,8 32,2 0,0
22-05-2019 13,7     20,5     27,5 13,8 23 53 77 1.017 1.018 1.019 S 5,3 32,2 0,0
21-05-2019 12,7     20,0     24,8 12,1 41 60 74 1.013 1.015 1.018 SSO 5,1 30,6 0,0
20-05-2019 12,7     18,9     24,7 12,0 42 59 70 1.011 1.013 1.014 S 5,3 35,4 0,0
19-05-2019 12,7     18,9     24,7 12,0 20 46 73 1.010 1.010 1.012 SSO 6,0 37,0 0,0
18-05-2019 14,4     19,3     25,4 11,0 24 48 68 1.008 1.009 1.011 S 5,6 57,9 0,0
Últims 13 mesos disponibles
05/2019 11,2 14,3 19,4 20,1 21,3 26,4 32,9 21,7 34 54 66 1.006 1.015 1.025 S 6,5 57,9 3,0
04/2019 8,2 11,3 14,2 16,2 14,5 21,8 30,0 21,8 43 58 83 1.000 1.013 1.025 NE 6,4 64,4 123,2
03/2019 5,6 8,0 12,7 14,6 15,3 21,4 28,6 23,0 38 52 81 1.011 1.023 1.030 NE 5,4 49,9 19,0
02/2019 4,6 6,6 11,1 12,7 15,1 19,6 26,8 22,2 27 50 69 997 1.024 1.033 SSE 7,3 78,9 0,8
01/2019 2,0 7,1 12,7 12,5 13,7 18,0 22,5 20,5 36 48 70 1.005 1.016 1.028 E 7,5 53,1 3,4
11/2018 8,1 8,7 9,8 14,3 19,5 21,2 22,9 14,8 51 57 77 1.007 1.015 1.020 E 5,2 30,6 3,2
10/2018 7,1 14,1 17,0 19,3 13,7 25,6 29,9 22,8 35 65 88 1.000 1.014 1.025 SSE 5,2 53,1 45,2
Tots els anys disponibles
Temperatura (°C)
Humitat relativa (%)
Velocitat del vent i ràfega màxima (km/h)
Direcció del vent (°)
Pressió (hPa)
Precipitació (mm)
Nota sobre les dades: s'avisa a l'usuari de la provisionalitat i no oficialitat d'aquestes dades
Logo AVAMET blanc
Web allotjada a Sollutia
Llicència de Creative CommonsLa web d'AVAMET i els seus continguts estan subjectes a una llicència de
Reconeixement - No Comercial - Compartir igual
Properes estacions: Catadau - Urb. Lloma Molina (Inforatge), Altea - Club Nàutic d'Altea (Soci), Ares del Maestrat (Ajuntament Soci),      - - - - -      Últimes estacions: Ontinyent - El Pilar (Soci), Asp - Poliesportiu (Soci), Jacarilla - centro (MeteOrihuela), Elx - Maitino/Vallverda/Velarde/Matola/Ferriol (Soci TiempoElche.com) - - -